Time;durP1;ratioP1;P1;durP2;ratioP2;P2;SDS_P1;SDS_P2;PMS_P1;PMS_P2;Temp;Humidity;BMP_temperature;BMP_pressure;BME280_temperature;BME280_humidity;BME280_pressure;Samples;Min_cycle;Max_cycle;Signal;HPM_P1;HPM_P2
2022/02/01 00:00:46;;;;;;;15.30;2.80;;;4.90;95.90;;;;;;5075594;28;20035;-75
2022/02/01 00:03:15;;;;;;;7.72;3.60;;;4.90;95.70;;;;;;5075004;28;20029;-74
2022/02/01 00:05:59;;;;;;;7.97;3.83;;;4.90;96.00;;;;;;5075388;28;20040;-75
2022/02/01 00:08:37;;;;;;;16.23;3.67;;;4.90;95.50;;;;;;5075202;28;20032;-76
2022/02/01 00:33:40;;;;;;;5.80;2.75;;;4.80;94.20;;;;;;5075319;28;20028;-76
2022/02/01 00:35:41;;;;;;;13.32;2.45;;;4.80;94.10;;;;;;5066527;28;20064;-75
2022/02/01 00:40:40;;;;;;;18.88;3.38;;;4.80;93.70;;;;;;5074959;28;20041;-74
2022/02/01 00:43:07;;;;;;;5.63;2.92;;;4.80;93.50;;;;;;5073917;28;20028;-75
2022/02/01 00:45:34;;;;;;;8.38;3.38;;;4.80;93.30;;;;;;5039327;28;20044;-75
2022/02/01 00:48:00;;;;;;;5.40;2.55;;;4.80;93.20;;;;;;5056667;28;20043;-75
2022/02/01 00:50:26;;;;;;;7.22;3.53;;;4.80;93.00;;;;;;5074462;28;20033;-74
2022/02/01 00:52:53;;;;;;;8.50;3.05;;;4.80;93.00;;;;;;5074084;28;20043;-75
2022/02/01 00:55:19;;;;;;;18.17;3.78;;;4.80;92.60;;;;;;5073669;28;20044;-75
2022/02/01 00:57:45;;;;;;;11.35;4.63;;;4.80;92.70;;;;;;5074098;28;20048;-75
2022/02/01 01:00:13;;;;;;;28.38;5.05;;;4.80;92.40;;;;;;5073798;28;20040;-75
2022/02/01 01:02:39;;;;;;;15.80;3.80;;;4.80;92.40;;;;;;5074301;28;20039;-74
2022/02/01 01:05:06;;;;;;;9.55;3.40;;;4.80;92.30;;;;;;5073592;28;20039;-74
2022/02/01 01:07:33;;;;;;;6.70;3.22;;;4.80;92.00;;;;;;5074211;28;20020;-75
2022/02/01 01:10:01;;;;;;;12.50;4.05;;;4.80;91.70;;;;;;5073548;28;20040;-77
2022/02/01 01:12:29;;;;;;;20.67;5.65;;;4.80;91.70;;;;;;5074099;28;20040;-73
2022/02/01 01:18:04;;;;;;;8.55;4.20;;;4.80;91.40;;;;;;5073836;28;20033;-74
2022/02/01 01:45:13;;;;;;;10.35;4.57;;;4.70;91.20;;;;;;5072899;28;20473;-74
2022/02/01 01:53:10;;;;;;;28.17;6.07;;;4.60;90.80;;;;;;5072714;28;20033;-74
2022/02/01 01:55:38;;;;;;;14.25;5.22;;;4.60;90.70;;;;;;5073494;28;20435;-74
2022/02/01 01:58:06;;;;;;;13.75;5.57;;;4.60;90.50;;;;;;5072462;28;20045;-74
2022/02/01 02:03:00;;;;;;;10.60;4.97;;;4.60;89.70;;;;;;5072965;28;20037;-74
2022/02/01 02:05:26;;;;;;;11.82;5.28;;;4.60;89.00;;;;;;5071071;28;20042;-74
2022/02/01 02:07:53;;;;;;;19.90;5.35;;;4.60;88.60;;;;;;5073222;28;20036;-74
2022/02/01 02:10:25;;;;;;;20.42;5.97;;;4.70;87.60;;;;;;5072217;28;20024;-75
2022/02/01 02:13:02;;;;;;;11.73;5.07;;;4.70;87.50;;;;;;5054858;28;20076;-74
2022/02/01 02:15:45;;;;;;;12.88;4.55;;;4.70;86.30;;;;;;5054955;28;20040;-74
2022/02/01 02:18:11;;;;;;;15.70;5.03;;;4.70;86.10;;;;;;5072115;28;20043;-75
2022/02/01 02:20:42;;;;;;;23.45;4.97;;;4.70;85.50;;;;;;5072761;28;20056;-74
2022/02/01 02:23:09;;;;;;;11.95;4.18;;;4.70;85.50;;;;;;5071902;28;20020;-75
2022/02/01 02:25:37;;;;;;;12.05;4.00;;;4.70;84.50;;;;;;5072571;28;20386;-74
2022/02/01 02:28:05;;;;;;;17.73;4.95;;;4.70;83.30;;;;;;5072902;28;20040;-76
2022/02/01 02:30:31;;;;;;;18.08;4.85;;;4.70;83.10;;;;;;5072680;28;20462;-74
2022/02/01 02:33:04;;;;;;;16.23;3.85;;;4.70;82.50;;;;;;5072616;28;20033;-74
2022/02/01 02:35:35;;;;;;;17.67;3.72;;;4.70;81.70;;;;;;5072406;28;20040;-74
2022/02/01 02:38:06;;;;;;;10.80;4.32;;;4.70;81.30;;;;;;5072828;28;20025;-74
2022/02/01 02:46:23;;;;;;;13.38;4.40;;;4.60;81.00;;;;;;5071972;28;20036;-74
2022/02/01 02:48:49;;;;;;;17.88;3.67;;;4.50;80.70;;;;;;5054595;28;20067;-74
2022/02/01 02:51:15;;;;;;;14.20;4.00;;;4.50;79.50;;;;;;5070905;28;20039;-74
2022/02/01 02:53:41;;;;;;;14.32;3.22;;;4.50;79.40;;;;;;5072692;28;20457;-74
2022/02/01 02:56:08;;;;;;;16.70;4.38;;;4.50;78.60;;;;;;5070888;28;20048;-74
2022/02/01 02:58:34;;;;;;;7.35;3.92;;;4.50;79.00;;;;;;5072476;28;20408;-75
2022/02/01 03:01:00;;;;;;;19.05;4.50;;;4.40;77.90;;;;;;5072055;28;20066;-74
2022/02/01 03:03:30;;;;;;;12.02;2.95;;;4.40;77.80;;;;;;5071304;28;20055;-75
2022/02/01 03:05:56;;;;;;;7.43;4.28;;;4.40;77.30;;;;;;5071737;28;20039;-75
2022/02/01 03:08:24;;;;;;;10.88;3.42;;;4.40;77.50;;;;;;5071415;28;20028;-74
2022/02/01 03:10:50;;;;;;;8.65;3.70;;;4.30;77.90;;;;;;5071688;28;20029;-75
2022/02/01 03:13:29;;;;;;;13.23;3.67;;;4.30;77.50;;;;;;5071038;28;20036;-75
2022/02/01 03:21:27;;;;;;;8.27;2.85;;;4.30;78.00;;;;;;5075365;28;20037;-75
2022/02/01 03:23:53;;;;;;;11.48;3.42;;;4.20;78.30;;;;;;5075820;28;20488;-74
2022/02/01 03:26:19;;;;;;;11.50;3.60;;;4.20;77.90;;;;;;5075076;28;20043;-75
2022/02/01 03:28:45;;;;;;;19.13;4.13;;;4.20;77.90;;;;;;5075766;28;20040;-75
2022/02/01 03:31:12;;;;;;;13.38;3.85;;;4.10;78.50;;;;;;5075334;28;20043;-75
2022/02/01 03:33:38;;;;;;;9.27;3.50;;;4.00;78.90;;;;;;5075674;28;20043;-75
2022/02/01 03:36:04;;;;;;;23.20;4.80;;;4.00;79.20;;;;;;5075569;28;20051;-75
2022/02/01 03:38:31;;;;;;;10.60;3.90;;;4.00;79.20;;;;;;5074831;28;20055;-75
2022/02/01 03:40:57;;;;;;;13.88;4.45;;;3.90;79.50;;;;;;5075527;28;20481;-75
2022/02/01 03:43:23;;;;;;;11.45;3.70;;;3.90;79.50;;;;;;5074918;28;20033;-75
2022/02/01 03:45:49;;;;;;;12.15;3.17;;;3.90;79.60;;;;;;5075454;28;20481;-74
2022/02/01 03:48:16;;;;;;;8.05;3.33;;;4.00;79.60;;;;;;5075067;28;20028;-75
2022/02/01 03:50:43;;;;;;;12.00;3.17;;;4.00;79.40;;;;;;5076308;28;20024;-75
2022/02/01 03:53:09;;;;;;;12.20;4.95;;;3.90;79.80;;;;;;5076103;28;20477;-76
2022/02/01 03:55:36;;;;;;;23.67;3.85;;;3.90;80.30;;;;;;5075915;28;20040;-74
2022/02/01 03:58:03;;;;;;;14.98;4.13;;;3.90;80.50;;;;;;5075156;28;20320;-74
2022/02/01 04:00:29;;;;;;;18.05;3.42;;;3.90;80.60;;;;;;5056951;28;20045;-75
2022/02/01 04:02:57;;;;;;;18.52;3.83;;;3.90;81.20;;;;;;5075004;28;20111;-75
2022/02/01 04:05:23;;;;;;;12.13;3.42;;;3.80;81.30;;;;;;5074273;28;20420;-75
2022/02/01 04:07:49;;;;;;;17.10;3.97;;;3.80;81.80;;;;;;5075320;28;20032;-75
2022/02/01 04:10:17;;;;;;;15.10;3.30;;;3.80;82.30;;;;;;5074727;28;20029;-75
2022/02/01 04:12:44;;;;;;;16.85;4.22;;;3.70;82.60;;;;;;5075037;28;20455;-74
2022/02/01 04:15:10;;;;;;;10.52;3.42;;;3.70;83.00;;;;;;5074650;28;20381;-76
2022/02/01 04:17:38;;;;;;;14.63;3.15;;;3.70;83.50;;;;;;5074119;28;20056;-75
2022/02/01 04:20:05;;;;;;;22.08;3.60;;;3.60;83.80;;;;;;5075187;28;20037;-74
2022/02/01 04:22:32;;;;;;;15.73;3.15;;;3.60;83.80;;;;;;5074140;28;20033;-74
2022/02/01 04:24:58;;;;;;;17.73;3.80;;;3.60;84.30;;;;;;5075059;28;20037;-74
2022/02/01 04:27:31;;;;;;;6.90;3.10;;;3.60;84.10;;;;;;5073302;28;20040;-74
2022/02/01 04:30:06;;;;;;;22.67;4.30;;;3.60;83.70;;;;;;5074859;28;20043;-74
2022/02/01 04:32:43;;;;;;;6.90;2.78;;;3.60;84.30;;;;;;5074403;28;20040;-74
2022/02/01 04:35:16;;;;;;;12.02;2.97;;;3.60;83.60;;;;;;5074853;28;20040;-74
2022/02/01 04:37:42;;;;;;;8.23;2.92;;;3.60;83.00;;;;;;5074378;28;20048;-74
2022/02/01 04:40:13;;;;;;;10.50;3.42;;;3.70;83.10;;;;;;5074868;28;20143;-75
2022/02/01 04:42:40;;;;;;;13.40;3.40;;;3.60;82.80;;;;;;5073993;28;20029;-74
2022/02/01 04:45:14;;;;;;;7.47;3.15;;;3.60;82.90;;;;;;5074887;28;20033;-75
2022/02/01 04:47:41;;;;;;;5.90;2.75;;;3.70;82.60;;;;;;5074451;28;20032;-74
2022/02/01 04:50:13;;;;;;;8.77;3.42;;;3.70;83.30;;;;;;5073855;28;20068;-74
2022/02/01 04:52:41;;;;;;;9.20;3.25;;;3.60;82.70;;;;;;5074244;28;20033;-74
2022/02/01 04:55:08;;;;;;;17.45;3.33;;;3.60;81.60;;;;;;5074634;28;20040;-74
2022/02/01 04:57:36;;;;;;;17.35;3.25;;;3.70;82.60;;;;;;5073487;28;20049;-74
2022/02/01 05:00:03;;;;;;;12.20;2.78;;;3.70;81.50;;;;;;5074091;28;20028;-75
2022/02/01 05:02:29;;;;;;;9.60;2.75;;;3.70;81.30;;;;;;5055204;28;20056;-74
2022/02/01 05:04:56;;;;;;;11.07;2.58;;;3.70;82.00;;;;;;5074349;28;20465;-75
2022/02/01 05:07:22;;;;;;;20.42;3.03;;;3.60;81.80;;;;;;5073452;28;20035;-74
2022/02/01 05:09:48;;;;;;;11.38;2.67;;;3.70;81.60;;;;;;5074635;28;20033;-75
2022/02/01 05:12:16;;;;;;;8.35;3.10;;;3.70;81.40;;;;;;5073572;28;20028;-83
2022/02/01 05:14:42;;;;;;;10.65;3.72;;;3.70;81.30;;;;;;5074940;28;20458;-84
2022/02/01 05:17:09;;;;;;;11.15;2.50;;;3.80;81.50;;;;;;5074778;28;20449;-85
2022/02/01 05:22:06;;;;;;;10.13;2.47;;;3.70;82.40;;;;;;5076032;28;20048;-81
2022/02/01 05:24:35;;;;;;;10.02;2.78;;;3.70;81.40;;;;;;5096508;28;20354;-81
2022/02/01 05:27:03;;;;;;;5.13;2.28;;;3.70;80.80;;;;;;5094561;28;20043;-83
2022/02/01 05:29:30;;;;;;;12.27;3.30;;;3.70;81.10;;;;;;5093816;28;20039;-83
2022/02/01 05:31:58;;;;;;;20.10;3.45;;;3.70;80.90;;;;;;5094401;28;20025;-83
2022/02/01 05:34:24;;;;;;;13.73;4.20;;;3.70;81.20;;;;;;5093340;28;20035;-83
2022/02/01 05:36:51;;;;;;;11.82;3.17;;;3.70;81.40;;;;;;5093785;28;20036;-83
2022/02/01 05:39:19;;;;;;;9.80;3.28;;;3.70;80.60;;;;;;5092252;28;20036;-82
2022/02/01 05:41:46;;;;;;;9.40;3.03;;;3.70;80.80;;;;;;5094006;28;20028;-83
2022/02/01 05:44:12;;;;;;;22.58;2.70;;;3.70;80.30;;;;;;5093800;28;20028;-82
2022/02/01 05:46:40;;;;;;;7.43;2.45;;;3.80;80.10;;;;;;5093412;28;20453;-82
2022/02/01 05:49:06;;;;;;;12.45;3.22;;;3.80;79.70;;;;;;5093637;28;20032;-82
2022/02/01 05:51:34;;;;;;;11.35;2.67;;;3.80;79.60;;;;;;5093035;28;20039;-83
2022/02/01 05:54:01;;;;;;;11.18;3.50;;;3.80;79.20;;;;;;5093593;28;20051;-83
2022/02/01 05:56:27;;;;;;;20.23;3.03;;;3.80;79.30;;;;;;5092753;28;20028;-81
2022/02/01 05:58:53;;;;;;;10.25;2.92;;;3.70;79.20;;;;;;5093203;28;20044;-82
2022/02/01 06:01:20;;;;;;;10.93;2.90;;;3.70;79.20;;;;;;5093249;28;20044;-82
2022/02/01 06:03:47;;;;;;;13.52;3.55;;;3.70;79.30;;;;;;5075493;28;20400;-82
2022/02/01 06:06:14;;;;;;;5.03;1.77;;;3.80;78.70;;;;;;5093462;28;20028;-82
2022/02/01 06:08:40;;;;;;;10.00;2.90;;;3.70;78.90;;;;;;5092675;28;20028;-82
2022/02/01 06:11:07;;;;;;;6.93;2.88;;;3.80;78.00;;;;;;5093213;28;20373;-81
2022/02/01 06:13:36;;;;;;;6.90;2.30;;;3.80;77.50;;;;;;5093775;28;20032;-81
2022/02/01 06:16:03;;;;;;;11.50;2.50;;;3.90;77.60;;;;;;5080661;28;20036;-82
2022/02/01 06:18:30;;;;;;;13.00;3.72;;;3.90;77.50;;;;;;5094745;28;20035;-82
2022/02/01 06:20:56;;;;;;;11.82;3.10;;;3.90;77.30;;;;;;5074988;28;20043;-81
2022/02/01 06:23:22;;;;;;;7.65;2.60;;;3.90;78.30;;;;;;5092857;28;20043;-81
2022/02/01 06:25:50;;;;;;;9.32;3.40;;;3.90;78.30;;;;;;5093047;28;20031;-80
2022/02/01 06:28:17;;;;;;;13.30;3.22;;;3.90;78.40;;;;;;5093238;28;20481;-81
2022/02/01 06:30:43;;;;;;;14.75;3.30;;;3.90;77.90;;;;;;5092898;28;20036;-81
2022/02/01 06:33:10;;;;;;;12.90;3.05;;;4.00;78.20;;;;;;5092804;28;20027;-81
2022/02/01 06:35:37;;;;;;;11.13;2.88;;;4.10;77.80;;;;;;5092332;28;20038;-81
2022/02/01 06:38:03;;;;;;;7.78;3.28;;;4.10;77.80;;;;;;5092849;28;20040;-81
2022/02/01 06:40:30;;;;;;;11.30;2.92;;;4.10;77.90;;;;;;5092108;28;20035;-81
2022/02/01 06:42:56;;;;;;;13.55;2.90;;;4.00;77.50;;;;;;5093165;28;20031;-81
2022/02/01 06:45:26;;;;;;;5.97;1.85;;;4.10;77.80;;;;;;5092137;28;20465;-81
2022/02/01 06:47:53;;;;;;;10.25;2.67;;;4.00;77.90;;;;;;5074213;28;20040;-80
2022/02/01 06:50:21;;;;;;;14.60;2.97;;;4.00;78.50;;;;;;5090444;28;20043;-83
2022/02/01 06:52:57;;;;;;;8.82;2.47;;;4.00;78.60;;;;;;5092925;28;20043;-80
2022/02/01 06:56:06;;;;;;;5.00;1.95;;;4.00;78.70;;;;;;5092052;28;20032;-81
2022/02/01 06:58:18;;;;;;;9.13;2.88;;;4.10;78.10;;;;;;5087828;28;20048;-81
2022/02/01 07:00:44;;;;;;;12.00;3.17;;;4.10;78.80;;;;;;5092692;28;20063;-81
2022/02/01 07:03:10;;;;;;;7.35;2.70;;;4.10;79.00;;;;;;5092278;28;20028;-81
2022/02/01 07:05:37;;;;;;;12.60;3.03;;;4.10;79.20;;;;;;5092275;28;20036;-81
2022/02/01 07:08:03;;;;;;;7.82;2.75;;;4.10;79.90;;;;;;5095538;28;20420;-81
2022/02/01 07:10:30;;;;;;;9.85;2.90;;;4.00;80.00;;;;;;5091061;28;20038;-80
2022/02/01 07:12:56;;;;;;;7.05;2.58;;;4.00;80.00;;;;;;5092091;28;20028;-80
2022/02/01 07:15:22;;;;;;;9.95;3.38;;;4.00;80.00;;;;;;5092188;28;20043;-81
2022/02/01 07:17:51;;;;;;;6.50;1.77;;;4.00;80.40;;;;;;5093112;28;20040;-79
2022/02/01 07:20:18;;;;;;;9.05;3.00;;;4.00;80.20;;;;;;5092717;28;20039;-80
2022/02/01 07:22:47;;;;;;;9.82;2.40;;;4.00;80.50;;;;;;5091740;28;20514;-79
2022/02/01 07:25:23;;;;;;;9.52;2.95;;;4.00;81.00;;;;;;5091849;28;20044;-77
2022/02/01 07:27:50;;;;;;;4.65;1.83;;;4.10;81.00;;;;;;5092416;28;20043;-79
2022/02/01 07:30:19;;;;;;;4.15;1.90;;;4.10;81.30;;;;;;5092685;28;20028;-78
2022/02/01 07:32:46;;;;;;;8.50;2.50;;;4.10;81.40;;;;;;5092217;28;20036;-77
2022/02/01 07:35:13;;;;;;;10.38;2.83;;;4.10;81.40;;;;;;5092330;28;20396;-77
2022/02/01 07:37:39;;;;;;;8.65;2.65;;;4.10;82.10;;;;;;5091783;28;20036;-78
2022/02/01 07:40:07;;;;;;;8.00;2.20;;;4.10;81.80;;;;;;5092073;28;20080;-79
2022/02/01 07:42:35;;;;;;;7.45;2.60;;;4.10;82.10;;;;;;5090498;28;20040;-77
2022/02/01 07:45:03;;;;;;;4.28;2.00;;;4.10;82.70;;;;;;5092185;28;20488;-77
2022/02/01 07:47:29;;;;;;;5.13;2.28;;;4.10;82.60;;;;;;5091297;28;20424;-78
2022/02/01 07:49:56;;;;;;;10.52;2.70;;;4.10;82.70;;;;;;5092062;28;20123;-78
2022/02/01 07:52:22;;;;;;;8.07;2.50;;;4.10;82.40;;;;;;5092014;28;20047;-78
2022/02/01 07:54:48;;;;;;;5.40;2.88;;;4.20;82.50;;;;;;5074244;28;20032;-78
2022/02/01 07:57:15;;;;;;;4.28;1.98;;;4.20;82.60;;;;;;5093533;28;20059;-77
2022/02/01 07:59:41;;;;;;;5.95;2.80;;;4.20;82.90;;;;;;5092785;28;20110;-77
2022/02/01 08:02:18;;;;;;;3.85;1.80;;;4.20;83.30;;;;;;5092290;28;20036;-77
2022/02/01 08:04:45;;;;;;;4.05;1.65;;;4.20;83.10;;;;;;5095583;28;20050;-77
2022/02/01 08:07:12;;;;;;;4.40;1.70;;;4.20;83.30;;;;;;5095517;28;20032;-78
2022/02/01 08:09:42;;;;;;;5.80;2.25;;;4.20;83.50;;;;;;5097398;28;20032;-78
2022/02/01 08:12:19;;;;;;;5.50;2.63;;;4.30;83.30;;;;;;5103371;28;20058;-78
2022/02/01 08:20:15;;;;;;;6.22;2.13;;;4.40;83.30;;;;;;5095709;28;20043;-78
2022/02/01 08:25:12;;;;;;;5.38;2.03;;;4.40;83.40;;;;;;5095312;28;20051;-78
2022/02/01 08:27:39;;;;;;;5.95;2.38;;;4.40;82.80;;;;;;5076171;28;20036;-78
2022/02/01 08:30:11;;;;;;;14.75;2.53;;;4.40;83.10;;;;;;5095620;28;20028;-79
2022/02/01 08:32:38;;;;;;;6.55;2.47;;;4.40;83.10;;;;;;5094473;28;20051;-78
2022/02/01 08:35:05;;;;;;;5.93;1.83;;;4.40;82.90;;;;;;5095496;28;20036;-81
2022/02/01 08:37:32;;;;;;;5.80;2.03;;;4.50;82.90;;;;;;5094461;28;20385;-81
2022/02/01 08:39:59;;;;;;;3.28;2.38;;;4.40;82.80;;;;;;5094828;28;20036;-81
2022/02/01 08:42:25;;;;;;;6.03;2.60;;;4.50;82.50;;;;;;5094957;28;20028;-80
2022/02/01 08:44:53;;;;;;;12.40;2.20;;;4.50;82.90;;;;;;5094827;28;20039;-80
2022/02/01 08:47:19;;;;;;;17.23;2.78;;;4.50;82.30;;;;;;5094912;28;20036;-81
2022/02/01 08:49:46;;;;;;;7.45;2.42;;;4.60;82.80;;;;;;5094928;28;20047;-81
2022/02/01 08:52:22;;;;;;;3.67;1.77;;;4.60;82.40;;;;;;5095963;28;20047;-79
2022/02/01 08:54:52;;;;;;;6.78;2.22;;;4.50;81.80;;;;;;5094461;28;20334;-80
2022/02/01 08:57:22;;;;;;;19.05;2.70;;;4.60;82.00;;;;;;5094265;28;20048;-80
2022/02/01 09:00:07;;;;;;;4.05;1.85;;;4.60;82.20;;;;;;5094301;28;20043;-80
2022/02/01 09:02:34;;;;;;;7.18;3.25;;;4.60;82.00;;;;;;5093802;28;20036;-81
2022/02/01 09:05:00;;;;;;;5.72;2.28;;;4.60;82.00;;;;;;5094449;28;20039;-81
2022/02/01 09:07:27;;;;;;;9.60;2.05;;;4.70;81.70;;;;;;5094314;28;20028;-81
2022/02/01 09:09:55;;;;;;;6.35;2.75;;;4.70;81.90;;;;;;5093870;28;20103;-81
2022/02/01 09:12:21;;;;;;;10.48;2.13;;;4.90;81.60;;;;;;5076505;28;20036;-81
2022/02/01 09:14:48;;;;;;;7.50;2.60;;;4.90;79.80;;;;;;5075181;28;20247;-81
2022/02/01 09:17:15;;;;;;;21.92;2.95;;;4.90;80.30;;;;;;5094326;28;20028;-80
2022/02/01 09:19:42;;;;;;;5.60;2.38;;;5.00;78.90;;;;;;5093705;28;20032;-81
2022/02/01 09:22:09;;;;;;;5.15;2.40;;;5.00;79.20;;;;;;5094204;28;20046;-80
2022/02/01 09:24:35;;;;;;;6.05;2.20;;;5.10;79.20;;;;;;5074793;28;20042;-81
2022/02/01 09:27:02;;;;;;;5.55;2.08;;;5.10;79.30;;;;;;5094247;28;20028;-81
2022/02/01 09:29:28;;;;;;;14.95;3.10;;;5.20;78.60;;;;;;5094137;28;20444;-81
2022/02/01 09:31:55;;;;;;;4.43;2.25;;;5.20;79.00;;;;;;5094099;28;20469;-80
2022/02/01 09:34:22;;;;;;;6.03;2.42;;;5.10;78.80;;;;;;5075703;28;20032;-80
2022/02/01 09:36:53;;;;;;;11.00;2.60;;;5.10;78.50;;;;;;5093445;28;20035;-80
2022/02/01 09:39:20;;;;;;;;;;;5.10;78.40;;;;;;5076148;28;20044;-80
2022/02/01 09:41:47;;;;;;;4.32;2.22;;;5.20;77.70;;;;;;5094302;28;19908;-80
2022/02/01 09:44:14;;;;;;;6.93;2.08;;;5.20;78.00;;;;;;5093959;28;20039;-80
2022/02/01 09:46:46;;;;;;;10.32;2.85;;;5.30;77.40;;;;;;5093320;28;20511;-81
2022/02/01 09:49:16;;;;;;;4.97;2.33;;;5.30;76.30;;;;;;5092765;28;20051;-79
2022/02/01 09:51:45;;;;;;;8.75;2.63;;;5.40;77.70;;;;;;5092843;28;20028;-80
2022/02/01 09:54:11;;;;;;;10.80;2.88;;;5.40;76.40;;;;;;5093151;28;20028;-79
2022/02/01 09:56:37;;;;;;;14.90;2.22;;;5.30;76.30;;;;;;5092433;28;20453;-81
2022/02/01 09:59:14;;;;;;;9.50;2.90;;;5.40;76.50;;;;;;5093241;28;20056;-79
2022/02/01 10:01:46;;;;;;;11.57;3.50;;;5.20;77.80;;;;;;5093144;28;20381;-79
2022/02/01 10:04:13;;;;;;;6.95;2.40;;;5.20;77.60;;;;;;5093292;28;20491;-79
2022/02/01 10:06:40;;;;;;;5.65;2.13;;;5.20;77.60;;;;;;5092771;28;20028;-79
2022/02/01 10:09:11;;;;;;;13.48;2.75;;;5.30;76.80;;;;;;5093069;28;20028;-79
2022/02/01 10:11:46;;;;;;;5.85;1.92;;;5.30;76.80;;;;;;5092977;28;20358;-79
2022/02/01 10:14:22;;;;;;;4.28;2.08;;;5.20;76.90;;;;;;5093094;28;20032;-79
2022/02/01 10:16:53;;;;;;;7.55;2.13;;;5.10;78.00;;;;;;5091892;28;20388;-79
2022/02/01 10:19:19;;;;;;;7.47;2.88;;;5.10;79.00;;;;;;5090666;28;20039;-79
2022/02/01 10:22:00;;;;;;;7.20;2.78;;;5.10;77.50;;;;;;5092035;28;20401;-79
2022/02/01 10:24:49;;;;;;;7.60;2.30;;;5.10;78.90;;;;;;5073090;28;20052;-79
2022/02/01 10:27:18;;;;;;;11.88;2.78;;;5.10;77.10;;;;;;5054038;28;20040;-79
2022/02/01 10:30:03;;;;;;;5.55;2.00;;;5.00;76.50;;;;;;5072471;28;20043;-78
2022/02/01 10:35:22;;;;;;;5.15;2.40;;;5.00;77.50;;;;;;5073089;28;20059;-78
2022/02/01 10:38:09;;;;;;;6.28;1.80;;;4.90;78.80;;;;;;5071978;28;20041;-78
2022/02/01 10:40:42;;;;;;;7.55;2.15;;;4.80;81.10;;;;;;5084456;28;20032;-79
2022/02/01 10:43:28;;;;;;;3.88;1.95;;;4.70;81.80;;;;;;5092003;28;20024;-78
2022/02/01 10:46:21;;;;;;;5.57;2.10;;;4.60;83.20;;;;;;5090399;28;20032;-78
2022/02/01 10:48:49;;;;;;;3.88;1.73;;;4.60;84.30;;;;;;5092767;28;20035;-78
2022/02/01 10:51:18;;;;;;;3.72;2.00;;;4.60;84.40;;;;;;5093011;28;20031;-78
2022/02/01 10:53:45;;;;;;;9.40;1.98;;;4.60;84.00;;;;;;5091990;28;20043;-78
2022/02/01 10:56:16;;;;;;;7.03;2.28;;;4.60;83.40;;;;;;5091437;28;20024;-81
2022/02/01 10:58:44;;;;;;;9.38;2.40;;;4.60;84.30;;;;;;5091356;28;20063;-79
2022/02/01 11:01:12;;;;;;;4.00;2.22;;;4.60;84.50;;;;;;5092620;28;20106;-78
2022/02/01 11:03:46;;;;;;;5.15;1.80;;;4.70;85.00;;;;;;5092635;28;20032;-77
2022/02/01 11:06:13;;;;;;;3.75;1.50;;;4.80;84.20;;;;;;5094360;28;20028;-79
2022/02/01 11:08:43;;;;;;;8.93;1.88;;;4.90;83.50;;;;;;5091771;28;20039;-78
2022/02/01 11:11:18;;;;;;;8.32;1.80;;;4.80;83.00;;;;;;5092411;28;20031;-78
2022/02/01 11:13:47;;;;;;;7.43;3.03;;;4.80;83.90;;;;;;5091209;28;20043;-79
2022/02/01 11:16:18;;;;;;;10.75;2.60;;;4.80;84.30;;;;;;5092516;28;20032;-78
2022/02/01 11:19:01;;;;;;;4.88;1.98;;;4.80;84.30;;;;;;5091920;28;20032;-78
2022/02/01 11:21:29;;;;;;;8.48;2.40;;;4.80;84.10;;;;;;5076265;28;20044;-78
2022/02/01 11:24:02;;;;;;;7.18;2.25;;;4.90;84.40;;;;;;5091804;28;20044;-78
2022/02/01 11:26:39;;;;;;;12.20;2.45;;;5.00;85.30;;;;;;5092389;28;20036;-79
2022/02/01 11:31:46;;;;;;;4.78;1.58;;;5.00;86.20;;;;;;5073186;28;20040;-80
2022/02/01 11:34:47;;;;;;;6.10;2.40;;;5.00;85.90;;;;;;5091348;28;20043;-77
2022/02/01 11:37:15;;;;;;;5.57;2.08;;;5.00;86.60;;;;;;5073602;28;20039;-78
2022/02/01 11:39:50;;;;;;;10.55;3.08;;;5.00;86.30;;;;;;5075130;28;20044;-78
2022/02/01 11:42:18;;;;;;;11.57;2.85;;;5.00;86.80;;;;;;5075261;28;20449;-78
2022/02/01 11:44:45;;;;;;;3.97;2.35;;;4.90;86.00;;;;;;5075587;28;20041;-78
2022/02/01 11:47:18;;;;;;;4.25;2.58;;;4.90;86.70;;;;;;5075885;28;20051;-77
2022/02/01 11:49:50;;;;;;;4.22;2.05;;;4.90;86.80;;;;;;5075295;28;20029;-78
2022/02/01 11:52:18;;;;;;;11.75;3.58;;;4.90;86.50;;;;;;5075805;28;20028;-79
2022/02/01 11:54:47;;;;;;;6.78;3.33;;;4.90;86.70;;;;;;5075246;28;20033;-79
2022/02/01 11:57:26;;;;;;;6.80;3.08;;;4.90;87.10;;;;;;5075321;28;20493;-79
2022/02/01 12:00:06;;;;;;;9.63;4.68;;;4.90;86.40;;;;;;5094112;28;20048;-79
2022/02/01 12:02:48;;;;;;;6.25;2.58;;;5.00;87.20;;;;;;5095463;28;20051;-79
2022/02/01 12:05:36;;;;;;;9.38;2.45;;;5.00;86.80;;;;;;5095770;28;20040;-79
2022/02/01 12:08:12;;;;;;;13.63;2.72;;;5.00;86.30;;;;;;5076789;28;20055;-78
2022/02/01 12:10:43;;;;;;;7.18;2.63;;;5.10;86.10;;;;;;5095338;28;20043;-81
2022/02/01 12:13:11;;;;;;;;;;;5.10;86.00;;;;;;5096677;28;20048;-77
2022/02/01 12:15:42;;;;;;;5.97;2.13;;;5.10;86.50;;;;;;5095561;28;19919;-77
2022/02/01 12:18:36;;;;;;;2.72;1.77;;;5.10;86.60;;;;;;5095799;28;20043;-77
2022/02/01 12:21:05;;;;;;;6.50;1.45;;;5.10;86.50;;;;;;5094830;28;20032;-77
2022/02/01 12:23:32;;;;;;;5.15;2.42;;;5.10;86.60;;;;;;5075469;28;20033;-78
2022/02/01 12:25:59;;;;;;;4.55;1.60;;;5.10;86.70;;;;;;5074515;28;20032;-77
2022/02/01 12:28:28;;;;;;;2.78;1.75;;;5.10;87.20;;;;;;5077494;28;20381;-77
2022/02/01 12:31:09;;;;;;;6.22;1.55;;;5.10;87.00;;;;;;5094141;28;20044;-77
2022/02/01 12:33:41;;;;;;;9.73;2.05;;;5.20;87.90;;;;;;5098345;28;20043;-76
2022/02/01 12:36:08;;;;;;;3.22;1.83;;;5.10;86.90;;;;;;5096864;28;20028;-76
2022/02/01 12:38:34;;;;;;;8.55;4.90;;;5.10;87.10;;;;;;5095525;28;20373;-76
2022/02/01 12:41:12;;;;;;;2.30;1.40;;;5.20;87.30;;;;;;5093841;28;20048;-76
2022/02/01 12:47:03;;;;;;;3.83;1.40;;;5.20;89.50;;;;;;5055491;28;20492;-76
2022/02/01 12:49:42;;;;;;;13.52;2.10;;;5.00;91.00;;;;;;5094304;28;20040;-76
2022/02/01 12:52:32;;;;;;;5.53;2.10;;;4.90;92.10;;;;;;5094967;28;20028;-76
2022/02/01 12:55:04;;;;;;;5.20;2.07;;;4.90;92.60;;;;;;5094318;28;20028;-76
2022/02/01 12:57:31;;;;;;;3.05;1.70;;;4.80;93.20;;;;;;5093608;28;20048;-76
2022/02/01 13:00:00;;;;;;;4.00;2.83;;;4.80;93.20;;;;;;5093824;28;20031;-75
2022/02/01 13:02:32;;;;;;;7.88;2.58;;;4.80;93.90;;;;;;5095100;28;20036;-75
2022/02/01 13:05:06;;;;;;;12.30;7.63;;;4.70;94.40;;;;;;5094010;28;20393;-75
2022/02/01 13:08:01;;;;;;;12.35;6.15;;;4.70;95.20;;;;;;5094505;28;20370;-76
2022/02/01 13:21:30;;;;;;;2.53;2.22;;;4.60;99.90;;;;;;5093738;28;20040;-75
2022/02/01 13:23:58;;;;;;;3.05;1.90;;;4.60;99.90;;;;;;5093515;28;20024;-75
2022/02/01 13:26:30;;;;;;;2.20;1.90;;;4.50;99.90;;;;;;5093982;28;20028;-75
2022/02/01 13:29:14;;;;;;;7.68;1.55;;;4.50;99.90;;;;;;5093875;28;20484;-75
2022/02/01 13:31:50;;;;;;;1.42;1.00;;;4.50;99.90;;;;;;5094358;28;20031;-75
2022/02/01 13:34:27;;;;;;;1.65;1.35;;;4.40;99.90;;;;;;5094036;28;20032;-76
2022/02/01 13:36:56;;;;;;;4.00;2.22;;;4.30;99.90;;;;;;5093362;28;20033;-75
2022/02/01 13:39:32;;;;;;;13.57;6.97;;;4.20;99.90;;;;;;5093638;28;20036;-75
2022/02/01 13:42:03;;;;;;;7.53;5.03;;;4.10;99.90;;;;;;5093315;28;20039;-75
2022/02/01 13:44:31;;;;;;;1.90;1.58;;;4.10;99.90;;;;;;5093833;28;20036;-75
2022/02/01 13:47:05;;;;;;;0.82;0.80;;;4.10;99.90;;;;;;5093215;28;20032;-75
2022/02/01 13:49:31;;;;;;;0.85;0.80;;;4.00;99.90;;;;;;5075870;28;20051;-75
2022/02/01 13:51:58;;;;;;;2.13;1.17;;;3.90;99.90;;;;;;5092905;28;20035;-76
2022/02/01 13:54:35;;;;;;;1.77;1.33;;;3.90;99.90;;;;;;5095105;28;20032;-77
2022/02/01 13:57:10;;;;;;;3.83;1.83;;;3.90;99.90;;;;;;5092538;28;20380;-76
2022/02/01 13:59:36;;;;;;;4.05;1.58;;;3.80;99.90;;;;;;5093530;28;20048;-76
2022/02/01 14:02:10;;;;;;;8.35;1.48;;;3.80;99.90;;;;;;5092142;28;20032;-75
2022/02/01 14:05:01;;;;;;;7.97;4.88;;;3.80;99.90;;;;;;5093704;28;20040;-78
2022/02/01 14:07:51;;;;;;;4.30;1.80;;;3.70;99.90;;;;;;5093409;28;20039;-77
2022/02/01 14:24:47;;;;;;;3.45;1.40;;;3.60;99.90;;;;;;5092539;28;20035;-76
2022/02/01 14:34:40;;;;;;;1.55;1.00;;;3.60;99.90;;;;;;5092800;28;20462;-76
2022/02/01 14:37:14;;;;;;;1.77;1.15;;;3.60;99.90;;;;;;5092159;28;20412;-76
2022/02/01 14:45:15;;;;;;;3.35;1.52;;;3.70;99.90;;;;;;5095401;28;20362;-76
2022/02/01 14:47:41;;;;;;;4.28;1.70;;;3.70;99.90;;;;;;5092836;28;20043;-76
2022/02/01 14:50:08;;;;;;;1.20;0.98;;;3.70;99.90;;;;;;5092134;28;20402;-76
2022/02/01 14:52:35;;;;;;;1.80;1.30;;;3.80;99.90;;;;;;5093067;28;20036;-77
2022/02/01 14:55:14;;;;;;;2.13;1.45;;;3.80;99.90;;;;;;5074438;28;20054;-76
2022/02/01 15:06:48;;;;;;;2.83;1.63;;;3.90;99.90;;;;;;5080985;28;20036;-75
2022/02/01 15:12:14;;;;;;;5.07;2.33;;;4.00;99.90;;;;;;5094064;28;20035;-76
2022/02/01 15:14:29;;;;;;;35.97;24.17;;;3.90;99.90;;;;;;5097492;28;20043;-75
2022/02/01 15:16:56;;;;;;;36.80;30.83;;;4.00;99.90;;;;;;5098633;28;20039;-75
2022/02/01 15:19:22;;;;;;;5.50;4.13;;;4.00;99.90;;;;;;5098760;28;20028;-75
2022/02/01 15:21:48;;;;;;;3.42;2.67;;;4.00;99.90;;;;;;5099444;28;20361;-76
2022/02/01 15:24:15;;;;;;;3.33;2.67;;;4.00;99.90;;;;;;5081168;28;20461;-76
2022/02/01 15:26:41;;;;;;;4.28;2.88;;;4.00;99.90;;;;;;5080912;28;20048;-76